Ana Sayfa
METAR-TAF:

METAR-TAF

Havaalanları :

İshigaki, Japonya

Enlem: 24-20N, Boylam: 124-10E, yükseklik: 6 m

Güncel hava durumu gözlemi

Rapor saat 09:00 UTC de 55 dakika önce yapıldı.
Rüzgar kuzey/kuzeydoğudan 15 kt
Sıcaklık 12°C
Nem 71%
Basınç 1025 hPa
Görüş mesafesi 10 km veya daha fazla
3200 ft yükseklikte parçalı bulutlu
4500 ft yükseklikte parçalı çok bulutlu

METAR: ROIG 170900Z 02015KT 9999 SCT032 BKN045 12/07 Q1025

Saat: 18:55 (09:55 UTC)

Tahmin

Rapor saat 05:08 UTC de 4 saat ve 47 dakika önce yapıldı.
Ayın 17'si saat 06 UTC'den ayın 18'si saat 12 UTC'ye kadar geçerli Tahmin
Rüzgar kuzeydan 17 kt
Görüş mesafesi 10 km veya daha fazla
2000 ft yükseklikte az bulutlu
4000 ft yükseklikte parçalı çok bulutlu
Geçici
ayın 17'si saat 06 UTC'den ayın 17'si saat 18 UTC'ye kadar
Rüzgar kuzeydan 19 kt ve 31 kt'a kadar ani rüzgarlar

TAF: ROIG 170508Z 1706/1812 01017KT 9999 FEW020 BKN040 TEMPO 1706/1718 01019G31KT

4.000'den fazla havaalanı için hava durumu gözlemleri ve tahminleri (METAR ve TAF raporları).

Kullanılabilir istasyonlar harita üzerinde sarı ve kırmızı noktalarla gösterilir.

İstasyonun adını görmek için fareyi noktanın üzerinde gezdirin.

Sonrasında hava gözlem ve tahminlerini görmek için tıklayın.

Haritayı değiştirmek için: yaklaştırmak için siyah artı işaretli yeşil düğmeye ve uzaklaştırmak için de eksi işaretli düğmeye hızla tıklayın; bitişik haritalar için yeşil okları kullanın.


METAR-TAF: